sensor_id;sensor_type;location;lat;lon;timestamp;temperature;humidity
40053;DHT22;25758;48.200;16.338;2023-08-17T00:01:23;22.10;99.90
40053;DHT22;25758;48.200;16.338;2023-08-17T00:03:49;22.20;99.90
40053;DHT22;25758;48.200;16.338;2023-08-17T00:06:14;22.10;99.90
40053;DHT22;25758;48.200;16.338;2023-08-17T00:08:41;22.20;99.90
40053;DHT22;25758;48.200;16.338;2023-08-17T00:11:06;22.20;99.90
40053;DHT22;25758;48.200;16.338;2023-08-17T00:13:32;22.30;99.90
40053;DHT22;25758;48.200;16.338;2023-08-17T00:15:58;22.30;99.90
40053;DHT22;25758;48.200;16.338;2023-08-17T00:18:23;22.40;99.90
40053;DHT22;25758;48.200;16.338;2023-08-17T00:20:49;22.30;99.90
40053;DHT22;25758;48.200;16.338;2023-08-17T00:23:15;22.30;99.90
40053;DHT22;25758;48.200;16.338;2023-08-17T00:25:40;22.60;99.90
40053;DHT22;25758;48.200;16.338;2023-08-17T00:28:06;22.60;99.90
40053;DHT22;25758;48.200;16.338;2023-08-17T00:30:32;22.60;99.90
40053;DHT22;25758;48.200;16.338;2023-08-17T00:33:01;24.30;99.90
40053;DHT22;25758;48.200;16.338;2023-08-17T00:35:27;22.60;99.90
40053;DHT22;25758;48.200;16.338;2023-08-17T00:37:53;22.70;99.90
40053;DHT22;25758;48.200;16.338;2023-08-17T00:40:18;22.70;99.90
40053;DHT22;25758;48.200;16.338;2023-08-17T00:42:44;22.90;99.90
40053;DHT22;25758;48.200;16.338;2023-08-17T00:45:10;22.90;99.90
40053;DHT22;25758;48.200;16.338;2023-08-17T00:50:02;23.00;99.90
40053;DHT22;25758;48.200;16.338;2023-08-17T00:52:28;23.00;99.90
40053;DHT22;25758;48.200;16.338;2023-08-17T00:54:56;22.90;99.90
40053;DHT22;25758;48.200;16.338;2023-08-17T00:57:23;23.10;99.90
40053;DHT22;25758;48.200;16.338;2023-08-17T00:59:49;23.10;99.90
40053;DHT22;25758;48.200;16.338;2023-08-17T01:02:17;23.20;99.90
40053;DHT22;25758;48.200;16.338;2023-08-17T01:04:43;23.20;99.90
40053;DHT22;25758;48.200;16.338;2023-08-17T01:07:08;23.20;99.90
40053;DHT22;25758;48.200;16.338;2023-08-17T01:09:34;23.20;99.90
40053;DHT22;25758;48.200;16.338;2023-08-17T01:12:13;23.20;99.90
40053;DHT22;25758;48.200;16.338;2023-08-17T01:18:00;23.30;99.90
40053;DHT22;25758;48.200;16.338;2023-08-17T01:20:29;23.30;99.90
40053;DHT22;25758;48.200;16.338;2023-08-17T01:22:56;23.30;99.90
40053;DHT22;25758;48.200;16.338;2023-08-17T01:25:24;23.30;99.90
40053;DHT22;25758;48.200;16.338;2023-08-17T01:27:49;23.20;99.90
40053;DHT22;25758;48.200;16.338;2023-08-17T01:30:16;23.20;99.90
40053;DHT22;25758;48.200;16.338;2023-08-17T01:33:03;23.10;99.90
40053;DHT22;25758;48.200;16.338;2023-08-17T01:38:23;23.20;99.90
40053;DHT22;25758;48.200;16.338;2023-08-17T01:40:50;23.10;99.90
40053;DHT22;25758;48.200;16.338;2023-08-17T01:43:18;23.10;99.90
40053;DHT22;25758;48.200;16.338;2023-08-17T01:45:45;22.80;99.90
40053;DHT22;25758;48.200;16.338;2023-08-17T01:48:11;22.80;99.90
40053;DHT22;25758;48.200;16.338;2023-08-17T01:50:37;22.70;99.90
40053;DHT22;25758;48.200;16.338;2023-08-17T01:53:02;22.70;99.90
40053;DHT22;25758;48.200;16.338;2023-08-17T01:55:28;22.80;99.90
40053;DHT22;25758;48.200;16.338;2023-08-17T01:57:54;22.80;99.90
40053;DHT22;25758;48.200;16.338;2023-08-17T02:00:19;22.70;99.90
40053;DHT22;25758;48.200;16.338;2023-08-17T02:02:45;22.80;99.90
40053;DHT22;25758;48.200;16.338;2023-08-17T02:05:11;22.80;99.90
40053;DHT22;25758;48.200;16.338;2023-08-17T02:07:36;22.20;99.90
40053;DHT22;25758;48.200;16.338;2023-08-17T02:10:02;22.20;99.90
40053;DHT22;25758;48.200;16.338;2023-08-17T02:12:28;21.70;99.90
40053;DHT22;25758;48.200;16.338;2023-08-17T02:30:07;20.80;99.90
40053;DHT22;25758;48.200;16.338;2023-08-17T02:32:33;21.10;99.90
40053;DHT22;25758;48.200;16.338;2023-08-17T02:40:44;20.90;99.90
40053;DHT22;25758;48.200;16.338;2023-08-17T02:43:11;21.00;99.90
40053;DHT22;25758;48.200;16.338;2023-08-17T02:45:36;21.00;99.90
40053;DHT22;25758;48.200;16.338;2023-08-17T02:48:02;21.20;99.90
40053;DHT22;25758;48.200;16.338;2023-08-17T02:57:08;20.90;99.90
40053;DHT22;25758;48.200;16.338;2023-08-17T02:59:33;21.20;99.90
40053;DHT22;25758;48.200;16.338;2023-08-17T03:01:59;21.30;99.90
40053;DHT22;25758;48.200;16.338;2023-08-17T03:04:24;21.50;99.90
40053;DHT22;25758;48.200;16.338;2023-08-17T03:06:50;21.60;99.90
40053;DHT22;25758;48.200;16.338;2023-08-17T03:09:16;21.70;99.90
40053;DHT22;25758;48.200;16.338;2023-08-17T03:11:41;21.80;99.90
40053;DHT22;25758;48.200;16.338;2023-08-17T03:14:07;22.00;99.90
40053;DHT22;25758;48.200;16.338;2023-08-17T03:16:32;21.80;99.90
40053;DHT22;25758;48.200;16.338;2023-08-17T03:18:58;21.90;99.90
40053;DHT22;25758;48.200;16.338;2023-08-17T03:21:24;22.10;99.90
40053;DHT22;25758;48.200;16.338;2023-08-17T03:23:49;22.00;99.90
40053;DHT22;25758;48.200;16.338;2023-08-17T03:26:16;21.30;99.90
40053;DHT22;25758;48.200;16.338;2023-08-17T03:29:00;21.10;99.90
40053;DHT22;25758;48.200;16.338;2023-08-17T03:31:26;21.00;99.90
40053;DHT22;25758;48.200;16.338;2023-08-17T03:33:52;20.80;99.90
40053;DHT22;25758;48.200;16.338;2023-08-17T03:36:17;21.00;99.90
40053;DHT22;25758;48.200;16.338;2023-08-17T03:42:06;20.70;99.90
40053;DHT22;25758;48.200;16.338;2023-08-17T03:44:50;20.90;99.90
40053;DHT22;25758;48.200;16.338;2023-08-17T03:47:16;21.10;99.90
40053;DHT22;25758;48.200;16.338;2023-08-17T03:49:42;21.40;99.90
40053;DHT22;25758;48.200;16.338;2023-08-17T03:52:07;21.40;99.90
40053;DHT22;25758;48.200;16.338;2023-08-17T03:54:33;21.60;99.90
40053;DHT22;25758;48.200;16.338;2023-08-17T03:56:59;21.70;99.90
40053;DHT22;25758;48.200;16.338;2023-08-17T03:59:24;21.80;99.90
40053;DHT22;25758;48.200;16.338;2023-08-17T04:01:50;21.40;99.90
40053;DHT22;25758;48.200;16.338;2023-08-17T04:06:42;21.50;99.90
40053;DHT22;25758;48.200;16.338;2023-08-17T04:09:08;21.50;99.90
40053;DHT22;25758;48.200;16.338;2023-08-17T04:11:37;21.50;99.90
40053;DHT22;25758;48.200;16.338;2023-08-17T04:14:03;21.40;99.90
40053;DHT22;25758;48.200;16.338;2023-08-17T04:16:29;21.20;99.90
40053;DHT22;25758;48.200;16.338;2023-08-17T04:18:54;21.20;99.90
40053;DHT22;25758;48.200;16.338;2023-08-17T04:21:20;21.00;99.90
40053;DHT22;25758;48.200;16.338;2023-08-17T04:50:11;20.80;99.90
40053;DHT22;25758;48.200;16.338;2023-08-17T04:52:45;21.10;99.90
40053;DHT22;25758;48.200;16.338;2023-08-17T04:55:12;21.20;99.90
40053;DHT22;25758;48.200;16.338;2023-08-17T04:57:38;21.10;99.90
40053;DHT22;25758;48.200;16.338;2023-08-17T05:00:05;21.20;99.90
40053;DHT22;25758;48.200;16.338;2023-08-17T05:02:37;21.20;99.90
40053;DHT22;25758;48.200;16.338;2023-08-17T05:05:04;21.40;99.90
40053;DHT22;25758;48.200;16.338;2023-08-17T05:07:30;21.50;99.90
40053;DHT22;25758;48.200;16.338;2023-08-17T05:09:55;21.60;99.90
40053;DHT22;25758;48.200;16.338;2023-08-17T05:12:21;21.60;99.90
40053;DHT22;25758;48.200;16.338;2023-08-17T05:14:47;21.80;99.90
40053;DHT22;25758;48.200;16.338;2023-08-17T05:17:12;21.80;99.90
40053;DHT22;25758;48.200;16.338;2023-08-17T05:19:38;21.90;99.90
40053;DHT22;25758;48.200;16.338;2023-08-17T05:22:09;21.90;99.90
40053;DHT22;25758;48.200;16.338;2023-08-17T05:24:35;21.70;99.90
40053;DHT22;25758;48.200;16.338;2023-08-17T05:27:01;21.70;99.90
40053;DHT22;25758;48.200;16.338;2023-08-17T05:29:26;21.80;99.90
40053;DHT22;25758;48.200;16.338;2023-08-17T05:31:52;21.80;99.90
40053;DHT22;25758;48.200;16.338;2023-08-17T05:34:18;21.90;99.90
40053;DHT22;25758;48.200;16.338;2023-08-17T05:36:43;22.00;99.90
40053;DHT22;25758;48.200;16.338;2023-08-17T05:39:09;22.10;99.90
40053;DHT22;25758;48.200;16.338;2023-08-17T05:41:35;22.20;99.90
40053;DHT22;25758;48.200;16.338;2023-08-17T05:44:00;22.30;99.90
40053;DHT22;25758;48.200;16.338;2023-08-17T05:46:26;22.20;99.90
40053;DHT22;25758;48.200;16.338;2023-08-17T05:48:51;22.20;99.90
40053;DHT22;25758;48.200;16.338;2023-08-17T05:51:17;22.20;99.90
40053;DHT22;25758;48.200;16.338;2023-08-17T05:53:43;22.30;99.90
40053;DHT22;25758;48.200;16.338;2023-08-17T05:56:08;22.30;99.90
40053;DHT22;25758;48.200;16.338;2023-08-17T05:58:34;22.30;99.90
40053;DHT22;25758;48.200;16.338;2023-08-17T06:01:10;22.40;99.90
40053;DHT22;25758;48.200;16.338;2023-08-17T06:03:37;22.40;99.90
40053;DHT22;25758;48.200;16.338;2023-08-17T06:06:03;22.40;99.90
40053;DHT22;25758;48.200;16.338;2023-08-17T06:08:32;22.40;99.90
40053;DHT22;25758;48.200;16.338;2023-08-17T06:10:58;22.50;99.90
40053;DHT22;25758;48.200;16.338;2023-08-17T06:13:23;22.60;99.90
40053;DHT22;25758;48.200;16.338;2023-08-17T06:15:49;22.40;99.90
40053;DHT22;25758;48.200;16.338;2023-08-17T06:18:15;22.20;99.90
40053;DHT22;25758;48.200;16.338;2023-08-17T06:20:41;22.30;99.90
40053;DHT22;25758;48.200;16.338;2023-08-17T06:23:07;22.40;99.90
40053;DHT22;25758;48.200;16.338;2023-08-17T06:25:32;22.40;99.90
40053;DHT22;25758;48.200;16.338;2023-08-17T06:27:59;22.40;99.90
40053;DHT22;25758;48.200;16.338;2023-08-17T06:30:25;22.60;99.90
40053;DHT22;25758;48.200;16.338;2023-08-17T06:32:51;22.60;99.90
40053;DHT22;25758;48.200;16.338;2023-08-17T06:37:43;22.70;99.90
40053;DHT22;25758;48.200;16.338;2023-08-17T06:40:09;22.70;99.90
40053;DHT22;25758;48.200;16.338;2023-08-17T06:42:34;22.50;99.90
40053;DHT22;25758;48.200;16.338;2023-08-17T06:45:00;22.50;99.90
40053;DHT22;25758;48.200;16.338;2023-08-17T06:47:26;22.60;99.90
40053;DHT22;25758;48.200;16.338;2023-08-17T06:49:52;22.70;99.90
40053;DHT22;25758;48.200;16.338;2023-08-17T06:52:17;22.60;99.90
40053;DHT22;25758;48.200;16.338;2023-08-17T06:54:43;22.60;99.90
40053;DHT22;25758;48.200;16.338;2023-08-17T06:57:09;22.50;99.90
40053;DHT22;25758;48.200;16.338;2023-08-17T06:59:34;22.60;99.90
40053;DHT22;25758;48.200;16.338;2023-08-17T07:02:00;22.70;99.90
40053;DHT22;25758;48.200;16.338;2023-08-17T07:04:26;22.80;99.90
40053;DHT22;25758;48.200;16.338;2023-08-17T07:06:52;22.90;99.90
40053;DHT22;25758;48.200;16.338;2023-08-17T07:09:17;22.90;99.90
40053;DHT22;25758;48.200;16.338;2023-08-17T07:11:44;22.90;99.90
40053;DHT22;25758;48.200;16.338;2023-08-17T07:14:09;23.00;99.90
40053;DHT22;25758;48.200;16.338;2023-08-17T07:16:35;22.90;99.90
40053;DHT22;25758;48.200;16.338;2023-08-17T07:19:00;22.90;99.90
40053;DHT22;25758;48.200;16.338;2023-08-17T07:21:26;23.10;99.90
40053;DHT22;25758;48.200;16.338;2023-08-17T07:23:54;23.20;99.90
40053;DHT22;25758;48.200;16.338;2023-08-17T07:26:20;23.20;99.90
40053;DHT22;25758;48.200;16.338;2023-08-17T07:28:46;23.30;99.90
40053;DHT22;25758;48.200;16.338;2023-08-17T07:31:12;23.40;99.90
40053;DHT22;25758;48.200;16.338;2023-08-17T07:33:38;23.40;99.90
40053;DHT22;25758;48.200;16.338;2023-08-17T07:36:04;22.80;99.90
40053;DHT22;25758;48.200;16.338;2023-08-17T07:38:30;23.50;99.90
40053;DHT22;25758;48.200;16.338;2023-08-17T07:40:55;23.60;99.90
40053;DHT22;25758;48.200;16.338;2023-08-17T07:43:21;23.60;99.90
40053;DHT22;25758;48.200;16.338;2023-08-17T07:45:56;23.80;99.90
40053;DHT22;25758;48.200;16.338;2023-08-17T07:48:22;23.80;99.90
40053;DHT22;25758;48.200;16.338;2023-08-17T07:50:51;23.90;99.90
40053;DHT22;25758;48.200;16.338;2023-08-17T07:53:18;23.80;99.90
40053;DHT22;25758;48.200;16.338;2023-08-17T07:55:43;23.90;99.90
40053;DHT22;25758;48.200;16.338;2023-08-17T07:58:09;24.00;99.90
40053;DHT22;25758;48.200;16.338;2023-08-17T08:00:35;24.10;99.90
40053;DHT22;25758;48.200;16.338;2023-08-17T08:03:00;24.20;99.90
40053;DHT22;25758;48.200;16.338;2023-08-17T08:05:26;24.20;99.90
40053;DHT22;25758;48.200;16.338;2023-08-17T08:07:52;24.30;99.90
40053;DHT22;25758;48.200;16.338;2023-08-17T08:10:18;24.30;99.90
40053;DHT22;25758;48.200;16.338;2023-08-17T08:12:44;24.40;99.90
40053;DHT22;25758;48.200;16.338;2023-08-17T08:15:09;24.40;99.90
40053;DHT22;25758;48.200;16.338;2023-08-17T08:17:35;24.40;99.90
40053;DHT22;25758;48.200;16.338;2023-08-17T08:20:01;24.40;99.90
40053;DHT22;25758;48.200;16.338;2023-08-17T08:22:27;24.40;99.90
40053;DHT22;25758;48.200;16.338;2023-08-17T08:24:52;24.40;99.90
40053;DHT22;25758;48.200;16.338;2023-08-17T08:27:18;24.40;99.90
40053;DHT22;25758;48.200;16.338;2023-08-17T08:29:44;24.40;99.90
40053;DHT22;25758;48.200;16.338;2023-08-17T08:32:09;24.40;99.90
40053;DHT22;25758;48.200;16.338;2023-08-17T08:34:35;24.30;99.90
40053;DHT22;25758;48.200;16.338;2023-08-17T08:37:01;24.40;99.90
40053;DHT22;25758;48.200;16.338;2023-08-17T08:39:26;24.40;99.90
40053;DHT22;25758;48.200;16.338;2023-08-17T08:41:53;24.50;99.90
40053;DHT22;25758;48.200;16.338;2023-08-17T08:44:19;24.40;99.90
40053;DHT22;25758;48.200;16.338;2023-08-17T08:46:45;24.40;99.90
40053;DHT22;25758;48.200;16.338;2023-08-17T08:49:12;24.40;99.90
40053;DHT22;25758;48.200;16.338;2023-08-17T08:51:44;24.50;99.90
40053;DHT22;25758;48.200;16.338;2023-08-17T08:54:20;24.60;99.90
40053;DHT22;25758;48.200;16.338;2023-08-17T08:56:46;24.60;99.90
40053;DHT22;25758;48.200;16.338;2023-08-17T08:59:16;24.60;99.90
40053;DHT22;25758;48.200;16.338;2023-08-17T09:01:42;24.60;99.90
40053;DHT22;25758;48.200;16.338;2023-08-17T09:04:08;24.60;99.90
40053;DHT22;25758;48.200;16.338;2023-08-17T09:06:34;24.60;99.90
40053;DHT22;25758;48.200;16.338;2023-08-17T09:09:02;24.70;99.90
40053;DHT22;25758;48.200;16.338;2023-08-17T09:11:28;24.70;99.90
40053;DHT22;25758;48.200;16.338;2023-08-17T09:13:53;24.70;99.90
40053;DHT22;25758;48.200;16.338;2023-08-17T09:16:19;24.80;99.90
40053;DHT22;25758;48.200;16.338;2023-08-17T09:18:45;24.80;99.90
40053;DHT22;25758;48.200;16.338;2023-08-17T09:21:24;24.80;99.90
40053;DHT22;25758;48.200;16.338;2023-08-17T09:23:56;24.90;99.90
40053;DHT22;25758;48.200;16.338;2023-08-17T09:26:22;25.00;99.90
40053;DHT22;25758;48.200;16.338;2023-08-17T09:28:51;25.10;99.90
40053;DHT22;25758;48.200;16.338;2023-08-17T09:31:20;25.30;99.90
40053;DHT22;25758;48.200;16.338;2023-08-17T09:33:52;25.70;99.90
40053;DHT22;25758;48.200;16.338;2023-08-17T09:36:22;26.00;99.90
40053;DHT22;25758;48.200;16.338;2023-08-17T09:38:51;26.20;99.90
40053;DHT22;25758;48.200;16.338;2023-08-17T09:41:20;26.40;99.90
40053;DHT22;25758;48.200;16.338;2023-08-17T09:43:46;26.50;99.90
40053;DHT22;25758;48.200;16.338;2023-08-17T09:46:12;26.60;99.90
40053;DHT22;25758;48.200;16.338;2023-08-17T09:48:39;26.70;99.90
40053;DHT22;25758;48.200;16.338;2023-08-17T09:51:06;26.90;99.90
40053;DHT22;25758;48.200;16.338;2023-08-17T09:53:35;27.20;99.90
40053;DHT22;25758;48.200;16.338;2023-08-17T09:56:05;27.40;99.90
40053;DHT22;25758;48.200;16.338;2023-08-17T09:58:33;27.50;99.90
40053;DHT22;25758;48.200;16.338;2023-08-17T10:01:03;27.50;99.90
40053;DHT22;25758;48.200;16.338;2023-08-17T10:03:29;27.40;99.90
40053;DHT22;25758;48.200;16.338;2023-08-17T10:06:10;27.40;99.90
40053;DHT22;25758;48.200;16.338;2023-08-17T10:08:43;27.60;99.90
40053;DHT22;25758;48.200;16.338;2023-08-17T10:11:10;27.90;99.90
40053;DHT22;25758;48.200;16.338;2023-08-17T10:13:42;28.10;99.90
40053;DHT22;25758;48.200;16.338;2023-08-17T10:21:29;28.70;99.90
40053;DHT22;25758;48.200;16.338;2023-08-17T10:23:57;28.80;99.90
40053;DHT22;25758;48.200;16.338;2023-08-17T10:26:24;28.90;99.90
40053;DHT22;25758;48.200;16.338;2023-08-17T10:28:51;29.00;99.90
40053;DHT22;25758;48.200;16.338;2023-08-17T10:31:17;28.80;99.90
40053;DHT22;25758;48.200;16.338;2023-08-17T10:33:44;28.90;99.90
40053;DHT22;25758;48.200;16.338;2023-08-17T10:36:13;29.10;99.90
40053;DHT22;25758;48.200;16.338;2023-08-17T10:38:40;29.00;99.70
40053;DHT22;25758;48.200;16.338;2023-08-17T10:41:10;29.00;99.90
40053;DHT22;25758;48.200;16.338;2023-08-17T10:43:57;29.20;99.90
40053;DHT22;25758;48.200;16.338;2023-08-17T10:46:36;29.20;99.60
40053;DHT22;25758;48.200;16.338;2023-08-17T10:49:06;29.30;99.30
40053;DHT22;25758;48.200;16.338;2023-08-17T10:51:33;29.30;98.90
40053;DHT22;25758;48.200;16.338;2023-08-17T10:54:02;29.20;98.40
40053;DHT22;25758;48.200;16.338;2023-08-17T10:56:29;29.20;98.10
40053;DHT22;25758;48.200;16.338;2023-08-17T10:58:58;29.20;98.50
40053;DHT22;25758;48.200;16.338;2023-08-17T11:01:51;29.30;98.60
40053;DHT22;25758;48.200;16.338;2023-08-17T11:04:17;29.30;99.20
40053;DHT22;25758;48.200;16.338;2023-08-17T11:06:44;29.40;98.90
40053;DHT22;25758;48.200;16.338;2023-08-17T11:09:10;29.50;98.60
40053;DHT22;25758;48.200;16.338;2023-08-17T11:11:37;29.60;98.30
40053;DHT22;25758;48.200;16.338;2023-08-17T11:14:03;29.60;98.20
40053;DHT22;25758;48.200;16.338;2023-08-17T11:16:28;29.70;96.90
40053;DHT22;25758;48.200;16.338;2023-08-17T11:18:54;29.40;96.90
40053;DHT22;25758;48.200;16.338;2023-08-17T11:21:23;29.40;97.30
40053;DHT22;25758;48.200;16.338;2023-08-17T11:23:49;29.40;97.50
40053;DHT22;25758;48.200;16.338;2023-08-17T11:26:18;29.40;96.70
40053;DHT22;25758;48.200;16.338;2023-08-17T11:28:44;29.30;96.20
40053;DHT22;25758;48.200;16.338;2023-08-17T11:31:11;29.30;95.90
40053;DHT22;25758;48.200;16.338;2023-08-17T11:33:38;29.20;96.20
40053;DHT22;25758;48.200;16.338;2023-08-17T11:36:06;29.10;95.20
40053;DHT22;25758;48.200;16.338;2023-08-17T11:38:37;29.00;95.00
40053;DHT22;25758;48.200;16.338;2023-08-17T11:41:06;29.10;95.30
40053;DHT22;25758;48.200;16.338;2023-08-17T11:43:36;29.10;95.40
40053;DHT22;25758;48.200;16.338;2023-08-17T11:46:02;29.00;96.00
40053;DHT22;25758;48.200;16.338;2023-08-17T11:48:28;28.90;95.60
40053;DHT22;25758;48.200;16.338;2023-08-17T11:50:54;28.80;95.40
40053;DHT22;25758;48.200;16.338;2023-08-17T11:53:21;28.80;95.60
40053;DHT22;25758;48.200;16.338;2023-08-17T11:55:46;28.80;95.10
40053;DHT22;25758;48.200;16.338;2023-08-17T12:00:56;28.80;95.30
40053;DHT22;25758;48.200;16.338;2023-08-17T12:03:22;28.80;95.10
40053;DHT22;25758;48.200;16.338;2023-08-17T12:05:50;28.90;95.20
40053;DHT22;25758;48.200;16.338;2023-08-17T12:08:16;28.90;95.10
40053;DHT22;25758;48.200;16.338;2023-08-17T12:10:44;29.00;95.30
40053;DHT22;25758;48.200;16.338;2023-08-17T12:13:13;28.90;95.20
40053;DHT22;25758;48.200;16.338;2023-08-17T12:15:38;28.80;95.20
40053;DHT22;25758;48.200;16.338;2023-08-17T12:18:05;28.80;95.60
40053;DHT22;25758;48.200;16.338;2023-08-17T12:20:33;28.80;95.50
40053;DHT22;25758;48.200;16.338;2023-08-17T12:23:02;28.80;95.20
40053;DHT22;25758;48.200;16.338;2023-08-17T12:25:28;28.80;95.70
40053;DHT22;25758;48.200;16.338;2023-08-17T12:27:58;28.80;95.50
40053;DHT22;25758;48.200;16.338;2023-08-17T12:30:33;28.80;95.70
40053;DHT22;25758;48.200;16.338;2023-08-17T12:33:01;28.80;95.60
40053;DHT22;25758;48.200;16.338;2023-08-17T12:35:27;28.70;95.00
40053;DHT22;25758;48.200;16.338;2023-08-17T12:37:53;28.70;94.60
40053;DHT22;25758;48.200;16.338;2023-08-17T12:40:19;28.70;95.30
40053;DHT22;25758;48.200;16.338;2023-08-17T12:42:45;28.50;95.70
40053;DHT22;25758;48.200;16.338;2023-08-17T12:45:10;28.60;95.50
40053;DHT22;25758;48.200;16.338;2023-08-17T12:47:36;28.50;95.00
40053;DHT22;25758;48.200;16.338;2023-08-17T12:50:02;28.50;94.10
40053;DHT22;25758;48.200;16.338;2023-08-17T12:52:29;28.50;94.60
40053;DHT22;25758;48.200;16.338;2023-08-17T12:54:54;28.50;95.00
40053;DHT22;25758;48.200;16.338;2023-08-17T12:57:20;28.30;95.30
40053;DHT22;25758;48.200;16.338;2023-08-17T12:59:46;28.40;95.30
40053;DHT22;25758;48.200;16.338;2023-08-17T13:02:11;28.50;94.70
40053;DHT22;25758;48.200;16.338;2023-08-17T13:04:37;28.50;94.60
40053;DHT22;25758;48.200;16.338;2023-08-17T13:07:03;28.50;94.40
40053;DHT22;25758;48.200;16.338;2023-08-17T13:09:29;28.50;94.60
40053;DHT22;25758;48.200;16.338;2023-08-17T13:11:54;28.50;94.30
40053;DHT22;25758;48.200;16.338;2023-08-17T13:14:20;28.50;95.00
40053;DHT22;25758;48.200;16.338;2023-08-17T13:16:48;28.50;94.40
40053;DHT22;25758;48.200;16.338;2023-08-17T13:19:14;28.30;94.70
40053;DHT22;25758;48.200;16.338;2023-08-17T13:21:40;28.40;94.70
40053;DHT22;25758;48.200;16.338;2023-08-17T13:24:05;28.40;95.00
40053;DHT22;25758;48.200;16.338;2023-08-17T13:26:32;28.30;94.90
40053;DHT22;25758;48.200;16.338;2023-08-17T13:28:57;28.30;94.80
40053;DHT22;25758;48.200;16.338;2023-08-17T13:31:23;28.30;94.70
40053;DHT22;25758;48.200;16.338;2023-08-17T13:33:49;28.30;94.50
40053;DHT22;25758;48.200;16.338;2023-08-17T13:36:14;28.30;94.80
40053;DHT22;25758;48.200;16.338;2023-08-17T13:38:40;28.20;94.70
40053;DHT22;25758;48.200;16.338;2023-08-17T13:41:05;28.20;94.90
40053;DHT22;25758;48.200;16.338;2023-08-17T13:43:31;28.20;94.70
40053;DHT22;25758;48.200;16.338;2023-08-17T13:45:57;28.20;95.00
40053;DHT22;25758;48.200;16.338;2023-08-17T13:48:22;28.20;94.80
40053;DHT22;25758;48.200;16.338;2023-08-17T13:50:48;28.20;94.50
40053;DHT22;25758;48.200;16.338;2023-08-17T13:53:13;28.20;95.00
40053;DHT22;25758;48.200;16.338;2023-08-17T13:55:39;28.20;94.60
40053;DHT22;25758;48.200;16.338;2023-08-17T13:58:05;28.20;94.50
40053;DHT22;25758;48.200;16.338;2023-08-17T14:00:30;28.10;94.40
40053;DHT22;25758;48.200;16.338;2023-08-17T14:02:56;28.10;94.80
40053;DHT22;25758;48.200;16.338;2023-08-17T14:05:21;28.10;95.00
40053;DHT22;25758;48.200;16.338;2023-08-17T14:07:48;28.10;94.40
40053;DHT22;25758;48.200;16.338;2023-08-17T14:10:14;28.00;94.60
40053;DHT22;25758;48.200;16.338;2023-08-17T14:12:39;28.00;94.80
40053;DHT22;25758;48.200;16.338;2023-08-17T14:15:06;28.00;95.00
40053;DHT22;25758;48.200;16.338;2023-08-17T14:17:32;28.00;95.30
40053;DHT22;25758;48.200;16.338;2023-08-17T14:19:57;27.90;94.70
40053;DHT22;25758;48.200;16.338;2023-08-17T14:22:23;27.80;95.00
40053;DHT22;25758;48.200;16.338;2023-08-17T14:24:49;27.90;95.30
40053;DHT22;25758;48.200;16.338;2023-08-17T14:27:14;27.80;95.60
40053;DHT22;25758;48.200;16.338;2023-08-17T14:29:40;27.80;95.50
40053;DHT22;25758;48.200;16.338;2023-08-17T14:32:06;27.80;95.80
40053;DHT22;25758;48.200;16.338;2023-08-17T14:34:32;27.80;96.00
40053;DHT22;25758;48.200;16.338;2023-08-17T14:36:57;27.80;96.00
40053;DHT22;25758;48.200;16.338;2023-08-17T14:39:23;27.80;96.20
40053;DHT22;25758;48.200;16.338;2023-08-17T14:41:49;27.80;96.20
40053;DHT22;25758;48.200;16.338;2023-08-17T14:44:14;27.80;96.20
40053;DHT22;25758;48.200;16.338;2023-08-17T14:46:42;27.80;96.00
40053;DHT22;25758;48.200;16.338;2023-08-17T14:49:08;27.80;95.70
40053;DHT22;25758;48.200;16.338;2023-08-17T14:51:38;27.70;95.20
40053;DHT22;25758;48.200;16.338;2023-08-17T14:54:04;27.80;95.30
40053;DHT22;25758;48.200;16.338;2023-08-17T14:56:30;27.70;95.10
40053;DHT22;25758;48.200;16.338;2023-08-17T14:58:55;27.70;94.70
40053;DHT22;25758;48.200;16.338;2023-08-17T15:01:21;27.70;94.80
40053;DHT22;25758;48.200;16.338;2023-08-17T15:03:46;27.70;95.00
40053;DHT22;25758;48.200;16.338;2023-08-17T15:06:12;27.60;94.70
40053;DHT22;25758;48.200;16.338;2023-08-17T15:08:38;27.60;94.70
40053;DHT22;25758;48.200;16.338;2023-08-17T15:11:03;27.60;94.80
40053;DHT22;25758;48.200;16.338;2023-08-17T15:13:29;27.50;95.00
40053;DHT22;25758;48.200;16.338;2023-08-17T15:15:55;27.50;95.00
40053;DHT22;25758;48.200;16.338;2023-08-17T15:18:21;27.50;95.00
40053;DHT22;25758;48.200;16.338;2023-08-17T15:20:47;27.40;95.50
40053;DHT22;25758;48.200;16.338;2023-08-17T15:23:12;27.50;95.60
40053;DHT22;25758;48.200;16.338;2023-08-17T15:25:38;27.50;95.80
40053;DHT22;25758;48.200;16.338;2023-08-17T15:28:04;27.70;95.80
40053;DHT22;25758;48.200;16.338;2023-08-17T15:30:29;27.80;95.70
40053;DHT22;25758;48.200;16.338;2023-08-17T15:32:55;27.80;95.20
40053;DHT22;25758;48.200;16.338;2023-08-17T15:35:21;28.00;95.30
40053;DHT22;25758;48.200;16.338;2023-08-17T15:37:46;28.00;95.40
40053;DHT22;25758;48.200;16.338;2023-08-17T15:40:19;28.10;95.40
40053;DHT22;25758;48.200;16.338;2023-08-17T15:42:45;28.10;95.70
40053;DHT22;25758;48.200;16.338;2023-08-17T15:45:10;27.90;96.30
40053;DHT22;25758;48.200;16.338;2023-08-17T15:47:36;28.00;96.50
40053;DHT22;25758;48.200;16.338;2023-08-17T15:50:02;28.10;96.60
40053;DHT22;25758;48.200;16.338;2023-08-17T15:52:27;28.10;96.50
40053;DHT22;25758;48.200;16.338;2023-08-17T15:54:53;28.20;96.50
40053;DHT22;25758;48.200;16.338;2023-08-17T15:57:19;28.20;96.60
40053;DHT22;25758;48.200;16.338;2023-08-17T15:59:44;28.20;96.40
40053;DHT22;25758;48.200;16.338;2023-08-17T16:02:13;28.20;96.40
40053;DHT22;25758;48.200;16.338;2023-08-17T16:04:39;28.00;96.80
40053;DHT22;25758;48.200;16.338;2023-08-17T16:07:05;28.20;96.90
40053;DHT22;25758;48.200;16.338;2023-08-17T16:09:31;28.20;97.10
40053;DHT22;25758;48.200;16.338;2023-08-17T16:11:56;28.10;97.10
40053;DHT22;25758;48.200;16.338;2023-08-17T16:14:22;28.20;97.20
40053;DHT22;25758;48.200;16.338;2023-08-17T16:16:48;28.10;97.40
40053;DHT22;25758;48.200;16.338;2023-08-17T16:19:13;28.00;97.40
40053;DHT22;25758;48.200;16.338;2023-08-17T16:21:39;28.00;97.40
40053;DHT22;25758;48.200;16.338;2023-08-17T16:24:05;28.00;97.40
40053;DHT22;25758;48.200;16.338;2023-08-17T16:26:30;27.90;97.70
40053;DHT22;25758;48.200;16.338;2023-08-17T16:28:56;27.90;97.50
40053;DHT22;25758;48.200;16.338;2023-08-17T16:31:22;27.90;97.50